sensor_id;sensor_type;location;lat;lon;timestamp;temperature;humidity
49821;DHT22;36893;52.520;13.450;2023-07-28T00:01:50;26.60;58.40
49821;DHT22;36893;52.520;13.450;2023-07-28T00:11:51;26.60;58.40
49821;DHT22;36893;52.520;13.450;2023-07-28T00:21:52;26.60;59.00
49821;DHT22;36893;52.520;13.450;2023-07-28T00:31:52;26.60;58.40
49821;DHT22;36893;52.520;13.450;2023-07-28T00:41:53;26.50;58.50
49821;DHT22;36893;52.520;13.450;2023-07-28T00:51:54;26.50;58.50
49821;DHT22;36893;52.520;13.450;2023-07-28T01:01:55;26.50;58.50
49821;DHT22;36893;52.520;13.450;2023-07-28T01:11:58;26.50;58.50
49821;DHT22;36893;52.520;13.450;2023-07-28T01:32:33;26.50;58.70
49821;DHT22;36893;52.520;13.450;2023-07-28T01:42:34;26.50;58.60
49821;DHT22;36893;52.520;13.450;2023-07-28T01:52:34;26.50;58.70
49821;DHT22;36893;52.520;13.450;2023-07-28T02:02:35;26.50;58.70
49821;DHT22;36893;52.520;13.450;2023-07-28T02:12:39;26.50;58.80
49821;DHT22;36893;52.520;13.450;2023-07-28T02:22:40;26.50;58.80
49821;DHT22;36893;52.520;13.450;2023-07-28T02:32:40;26.50;58.80
49821;DHT22;36893;52.520;13.450;2023-07-28T02:42:41;26.40;58.80
49821;DHT22;36893;52.520;13.450;2023-07-28T02:52:42;26.40;58.90
49821;DHT22;36893;52.520;13.450;2023-07-28T03:02:42;26.40;58.90
49821;DHT22;36893;52.520;13.450;2023-07-28T03:12:43;26.40;58.90
49821;DHT22;36893;52.520;13.450;2023-07-28T03:22:43;26.40;58.90
49821;DHT22;36893;52.520;13.450;2023-07-28T03:32:44;26.40;58.90
49821;DHT22;36893;52.520;13.450;2023-07-28T03:42:45;26.40;59.00
49821;DHT22;36893;52.520;13.450;2023-07-28T03:52:45;26.40;59.00
49821;DHT22;36893;52.520;13.450;2023-07-28T04:02:46;26.40;59.00
49821;DHT22;36893;52.520;13.450;2023-07-28T04:12:47;26.40;59.10
49821;DHT22;36893;52.520;13.450;2023-07-28T04:22:47;26.40;59.10
49821;DHT22;36893;52.520;13.450;2023-07-28T04:32:48;26.40;59.20
49821;DHT22;36893;52.520;13.450;2023-07-28T04:42:49;26.40;59.20
49821;DHT22;36893;52.520;13.450;2023-07-28T04:52:53;26.40;59.20
49821;DHT22;36893;52.520;13.450;2023-07-28T05:02:54;26.40;59.20
49821;DHT22;36893;52.520;13.450;2023-07-28T05:12:54;26.40;59.20
49821;DHT22;36893;52.520;13.450;2023-07-28T05:22:56;26.40;59.30
49821;DHT22;36893;52.520;13.450;2023-07-28T05:32:56;26.40;59.30
49821;DHT22;36893;52.520;13.450;2023-07-28T05:42:57;26.40;59.40
49821;DHT22;36893;52.520;13.450;2023-07-28T05:52:58;26.40;59.40
49821;DHT22;36893;52.520;13.450;2023-07-28T06:02:58;26.40;59.50
49821;DHT22;36893;52.520;13.450;2023-07-28T06:12:59;26.40;59.50
49821;DHT22;36893;52.520;13.450;2023-07-28T06:23:00;26.40;59.50
49821;DHT22;36893;52.520;13.450;2023-07-28T06:33:01;26.40;59.60
49821;DHT22;36893;52.520;13.450;2023-07-28T06:43:03;26.40;59.60
49821;DHT22;36893;52.520;13.450;2023-07-28T06:53:04;26.40;59.60
49821;DHT22;36893;52.520;13.450;2023-07-28T07:03:05;26.40;59.70
49821;DHT22;36893;52.520;13.450;2023-07-28T07:13:05;26.40;59.80
49821;DHT22;36893;52.520;13.450;2023-07-28T07:23:06;26.40;59.80
49821;DHT22;36893;52.520;13.450;2023-07-28T07:33:07;26.40;59.80
49821;DHT22;36893;52.520;13.450;2023-07-28T07:43:08;26.40;59.90
49821;DHT22;36893;52.520;13.450;2023-07-28T07:53:08;26.40;59.80
49821;DHT22;36893;52.520;13.450;2023-07-28T08:03:09;26.40;59.90
49821;DHT22;36893;52.520;13.450;2023-07-28T08:13:10;26.40;59.90
49821;DHT22;36893;52.520;13.450;2023-07-28T08:23:11;26.40;59.90
49821;DHT22;36893;52.520;13.450;2023-07-28T08:33:11;26.50;60.00
49821;DHT22;36893;52.520;13.450;2023-07-28T08:43:12;26.50;60.00
49821;DHT22;36893;52.520;13.450;2023-07-28T08:53:13;26.40;60.00
49821;DHT22;36893;52.520;13.450;2023-07-28T09:03:13;26.50;60.10
49821;DHT22;36893;52.520;13.450;2023-07-28T09:13:16;26.50;60.10
49821;DHT22;36893;52.520;13.450;2023-07-28T09:23:17;26.50;60.30
49821;DHT22;36893;52.520;13.450;2023-07-28T09:33:35;26.50;60.30
49821;DHT22;36893;52.520;13.450;2023-07-28T09:43:40;26.50;60.40
49821;DHT22;36893;52.520;13.450;2023-07-28T09:53:53;26.50;60.40
49821;DHT22;36893;52.520;13.450;2023-07-28T10:04:05;26.50;60.40
49821;DHT22;36893;52.520;13.450;2023-07-28T10:14:07;26.60;60.50
49821;DHT22;36893;52.520;13.450;2023-07-28T10:24:10;26.60;61.30
49821;DHT22;36893;52.520;13.450;2023-07-28T10:34:11;26.60;60.50
49821;DHT22;36893;52.520;13.450;2023-07-28T10:44:11;26.60;60.60
49821;DHT22;36893;52.520;13.450;2023-07-28T10:54:12;26.60;60.60
49821;DHT22;36893;52.520;13.450;2023-07-28T11:04:20;26.60;60.60
49821;DHT22;36893;52.520;13.450;2023-07-28T11:14:21;26.60;60.60
49821;DHT22;36893;52.520;13.450;2023-07-28T11:24:21;26.60;60.70
49821;DHT22;36893;52.520;13.450;2023-07-28T11:34:24;26.60;60.70
49821;DHT22;36893;52.520;13.450;2023-07-28T11:44:24;26.60;60.80
49821;DHT22;36893;52.520;13.450;2023-07-28T11:54:26;26.60;60.90
49821;DHT22;36893;52.520;13.450;2023-07-28T12:04:38;26.50;60.80
49821;DHT22;36893;52.520;13.450;2023-07-28T12:14:39;26.60;60.90
49821;DHT22;36893;52.520;13.450;2023-07-28T12:24:40;26.60;60.90
49821;DHT22;36893;52.520;13.450;2023-07-28T12:34:41;26.60;60.90
49821;DHT22;36893;52.520;13.450;2023-07-28T12:44:42;26.60;60.90
49821;DHT22;36893;52.520;13.450;2023-07-28T12:54:43;26.60;61.00
49821;DHT22;36893;52.520;13.450;2023-07-28T13:04:43;26.60;61.00
49821;DHT22;36893;52.520;13.450;2023-07-28T13:14:44;26.60;61.00
49821;DHT22;36893;52.520;13.450;2023-07-28T13:24:44;26.70;61.00
49821;DHT22;36893;52.520;13.450;2023-07-28T13:34:45;26.70;61.30
49821;DHT22;36893;52.520;13.450;2023-07-28T13:44:46;26.70;61.70
49821;DHT22;36893;52.520;13.450;2023-07-28T13:54:47;26.60;62.60
49821;DHT22;36893;52.520;13.450;2023-07-28T14:04:48;26.70;63.50
49821;DHT22;36893;52.520;13.450;2023-07-28T14:14:49;26.70;64.10
49821;DHT22;36893;52.520;13.450;2023-07-28T14:24:50;26.70;64.80
49821;DHT22;36893;52.520;13.450;2023-07-28T14:34:50;26.70;65.00
49821;DHT22;36893;52.520;13.450;2023-07-28T14:44:51;26.70;65.00
49821;DHT22;36893;52.520;13.450;2023-07-28T14:54:52;26.70;64.90
49821;DHT22;36893;52.520;13.450;2023-07-28T15:04:53;26.80;64.90
49821;DHT22;36893;52.520;13.450;2023-07-28T15:14:53;26.80;64.90
49821;DHT22;36893;52.520;13.450;2023-07-28T15:24:54;26.80;65.00
49821;DHT22;36893;52.520;13.450;2023-07-28T15:34:55;26.80;65.00
49821;DHT22;36893;52.520;13.450;2023-07-28T15:44:55;26.80;65.20
49821;DHT22;36893;52.520;13.450;2023-07-28T15:54:57;26.80;65.20
49821;DHT22;36893;52.520;13.450;2023-07-28T16:04:58;26.80;65.40
49821;DHT22;36893;52.520;13.450;2023-07-28T16:14:58;26.80;65.50
49821;DHT22;36893;52.520;13.450;2023-07-28T16:24:59;26.80;65.60
49821;DHT22;36893;52.520;13.450;2023-07-28T16:34:59;26.80;65.70
49821;DHT22;36893;52.520;13.450;2023-07-28T16:45:01;26.80;65.80
49821;DHT22;36893;52.520;13.450;2023-07-28T16:55:02;26.80;65.80
49821;DHT22;36893;52.520;13.450;2023-07-28T17:05:03;26.80;66.00
49821;DHT22;36893;52.520;13.450;2023-07-28T17:15:04;26.80;66.10
49821;DHT22;36893;52.520;13.450;2023-07-28T17:25:06;26.70;66.20
49821;DHT22;36893;52.520;13.450;2023-07-28T17:35:07;26.80;66.50
49821;DHT22;36893;52.520;13.450;2023-07-28T17:45:09;26.80;66.70
49821;DHT22;36893;52.520;13.450;2023-07-28T17:55:09;26.80;66.90
49821;DHT22;36893;52.520;13.450;2023-07-28T18:05:10;26.80;67.10
49821;DHT22;36893;52.520;13.450;2023-07-28T18:15:11;26.80;67.30
49821;DHT22;36893;52.520;13.450;2023-07-28T18:25:11;26.80;68.20
49821;DHT22;36893;52.520;13.450;2023-07-28T18:35:12;26.80;67.50
49821;DHT22;36893;52.520;13.450;2023-07-28T18:45:13;26.80;67.70
49821;DHT22;36893;52.520;13.450;2023-07-28T18:55:14;26.80;67.80
49821;DHT22;36893;52.520;13.450;2023-07-28T19:05:14;26.80;67.90
49821;DHT22;36893;52.520;13.450;2023-07-28T19:15:15;26.80;68.00
49821;DHT22;36893;52.520;13.450;2023-07-28T19:25:16;26.80;68.20
49821;DHT22;36893;52.520;13.450;2023-07-28T19:35:16;26.80;68.30
49821;DHT22;36893;52.520;13.450;2023-07-28T19:45:17;26.80;68.40
49821;DHT22;36893;52.520;13.450;2023-07-28T19:55:18;26.80;68.60
49821;DHT22;36893;52.520;13.450;2023-07-28T20:05:18;26.80;68.90
49821;DHT22;36893;52.520;13.450;2023-07-28T20:15:19;26.80;69.10
49821;DHT22;36893;52.520;13.450;2023-07-28T20:25:20;26.80;69.40
49821;DHT22;36893;52.520;13.450;2023-07-28T20:35:21;26.80;69.60
49821;DHT22;36893;52.520;13.450;2023-07-28T20:45:21;26.70;70.10
49821;DHT22;36893;52.520;13.450;2023-07-28T20:55:22;26.70;70.40
49821;DHT22;36893;52.520;13.450;2023-07-28T21:05:23;26.70;70.80
49821;DHT22;36893;52.520;13.450;2023-07-28T21:15:23;26.40;71.40
49821;DHT22;36893;52.520;13.450;2023-07-28T21:25:24;26.20;72.10
49821;DHT22;36893;52.520;13.450;2023-07-28T21:35:25;26.00;72.80
49821;DHT22;36893;52.520;13.450;2023-07-28T21:45:25;25.80;73.20
49821;DHT22;36893;52.520;13.450;2023-07-28T21:55:26;25.60;73.70
49821;DHT22;36893;52.520;13.450;2023-07-28T22:05:26;25.50;74.20
49821;DHT22;36893;52.520;13.450;2023-07-28T22:15:27;25.40;74.60
49821;DHT22;36893;52.520;13.450;2023-07-28T22:25:29;25.30;75.00
49821;DHT22;36893;52.520;13.450;2023-07-28T22:35:30;25.30;75.30
49821;DHT22;36893;52.520;13.450;2023-07-28T22:45:30;25.30;75.70
49821;DHT22;36893;52.520;13.450;2023-07-28T22:55:31;25.20;76.00
49821;DHT22;36893;52.520;13.450;2023-07-28T23:05:32;25.10;76.30
49821;DHT22;36893;52.520;13.450;2023-07-28T23:15:34;25.10;76.70
49821;DHT22;36893;52.520;13.450;2023-07-28T23:25:35;24.90;77.10
49821;DHT22;36893;52.520;13.450;2023-07-28T23:35:35;24.90;77.40
49821;DHT22;36893;52.520;13.450;2023-07-28T23:45:36;24.80;77.70
49821;DHT22;36893;52.520;13.450;2023-07-28T23:55:37;24.70;78.10
